Station BLTM2 - 8574680 - Baltimore, MD Image indicating link to RSS feed of recent meteorological observations for station BLTM2


Conditions at BLTM2 as of
(12:30 pm EDT)
1630 GMT on 04/18/2024:
     

Click on the graph icon in the table below to see a time series plot of the last five days of that observation.

5-day plot - Wind Direction Wind Direction (WDIR): SE ( 130 deg true )
5-day plot - Wind Speed Wind Speed (WSPD): 4.1 kts
5-day plot - Wind Gust Wind Gust (GST): 6.0 kts
5-day plot - Air Temperature Air Temperature (ATMP): 60.1 °F
5-day plot - Water Temperature Water Temperature (WTMP): 60.8 °F
5-day plot - Wind Speed at 10 Meters Wind Speed at 10 meters (WSPD10M): 3.9 kts
5-day plot - Wind Speed at 20 Meters Wind Speed at 20 meters (WSPD20M): 3.9 kts
5-day plot -  Wind Speed, Wind Gust and Atmospheric Pressure Combined plot of Wind Speed, Gust, and Air Pressure
NOS Water Level Observation Network Water Level
Previous observations
TIME
(EDT)
5-day plot - Wind Direction
WDIR
 
5-day plot - Wind Speed
WSPD
kts
5-day plot - Wind Gust
GST
kts
5-day plot - Wave Height
WVHT
ft
5-day plot - Dominant Wave Period
DPD
sec
5-day plot - Average Wave Period
APD
sec
5-day plot - Mean Wave Direction
MWD
 
5-day plot - Atmospheric Pressure
PRES
in
5-day plot - Pressure Tendency
PTDY
in
5-day plot - Air Temperature
ATMP
°F
5-day plot - Water Temperature
WTMP
°F
5-day plot - Dew Point
DEWP
°F
5-day plot - Salinity
SAL
psu
5-day plot - Visibility
VIS
nmi
5-day plot - Tide (above MLLW)
TIDE
ft
2024-04-18 12:24 pm SE 5.1 6.0------ 59.0 60.6----
2024-04-18 12:18 pmESE 6.0 7.0------ 58.8 60.6----
2024-04-18 12:12 pm SE 4.1 6.0------ 59.0 60.6----
2024-04-18 12:06 pmESE 4.1 5.1------ 59.0 60.6----
2024-04-18 12:00 pmSSE 2.9 5.1------ 59.4 60.6----
2024-04-18 11:54 am SE 4.1 6.0------ 59.0 60.6----
2024-04-18 11:48 amSSE 2.9 5.1------ 59.4 60.6----
2024-04-18 11:42 amSSE 2.9 5.1------ 59.2 60.6----
2024-04-18 11:36 amSSE 2.9 5.1------ 59.2 60.6----
2024-04-18 11:30 amSSE 2.9 4.1------ 59.0 60.6----
2024-04-18 11:24 am SE 2.9 4.1------ 58.5 60.6----
2024-04-18 11:18 amESE 2.9 5.1------ 58.3 60.6----
2024-04-18 11:12 amESE 2.9 4.1------ 58.5 60.6----
2024-04-18 11:06 am- 0.0 1.9------ 58.8 60.6----
2024-04-18 11:00 am SE 1.9 4.1------ 58.3 60.6----
2024-04-18 10:54 am E 1.0 2.9------ 58.1 60.6----
2024-04-18 10:48 amESE 1.9 2.9------------
2024-04-18 10:42 amESE 1.0 1.9------------
2024-04-18 10:36 amNNE 1.9 5.1------------
2024-04-18 10:30 amNNE 2.9 5.1------ 57.2 60.6----
2024-04-18 10:24 am NE 2.9 5.1------ 57.0 60.6----
2024-04-18 10:18 amENE 2.9 6.0------ 56.7 60.6----
2024-04-18 10:12 am NE 5.1 7.0------ 56.5 60.6----
2024-04-18 10:06 am E 4.1 6.0------ 56.5 60.6----
2024-04-18 10:00 am E 4.1 5.1------ 56.3 60.6----
2024-04-18 09:54 amENE 4.1 5.1------ 56.3 60.6----
2024-04-18 09:48 am E 1.9 4.1------ 56.1 60.6----
2024-04-18 09:42 am E 4.1 7.0------ 55.9 60.6----
2024-04-18 09:36 am E 5.1 7.0------ 55.9 60.6----
2024-04-18 09:30 amENE 5.1 7.0------ 55.9 60.6----
2024-04-18 09:24 am NE 6.0 7.0------ 56.1 60.6----
2024-04-18 09:18 amENE 5.1 7.0------ 56.1 60.6----
2024-04-18 09:12 am E 4.1 6.0------ 56.7 60.6----
2024-04-18 09:06 am E 5.1 6.0------ 56.5 60.6----
2024-04-18 09:00 am E 4.1 5.1------ 56.7 60.6----
2024-04-18 08:54 am E 4.1 5.1------ 56.7 60.6----
2024-04-18 08:48 am E 5.1 6.0------ 56.7 60.6----
2024-04-18 08:42 am E 5.1 6.0------ 57.0 60.6----
2024-04-18 08:36 am E 5.1 6.0------ 57.0 60.6----
2024-04-18 08:30 am E 4.1 6.0------ 57.2 60.6----
2024-04-18 08:24 am E 5.1 5.1------ 57.4 60.6----
2024-04-18 08:18 am E 4.1 6.0------ 57.6 60.8----
2024-04-18 08:12 am E 6.0 7.0------ 57.7 60.8----
2024-04-18 08:06 am E 6.0 7.0------ 57.9 60.8----
2024-04-18 08:00 am E 4.1 5.1------ 58.1 60.8----
2024-04-18 07:54 am E 5.1 5.1------ 58.3 60.8----
2024-04-18 07:48 am E 4.1 6.0------ 58.5 60.8----
2024-04-18 07:42 am E 4.1 6.0------ 58.6 60.8----
2024-04-18 07:36 am E 5.1 5.1------ 58.6 60.8----
2024-04-18 07:30 am E 4.1 5.1------ 58.8 60.8----
2024-04-18 07:24 am E 4.1 5.1------ 59.0 60.8----
2024-04-18 07:18 am E 4.1 5.1------ 58.8 60.8----
2024-04-18 07:12 am E 5.1 5.1------ 58.8 60.8----
2024-04-18 07:06 am E 4.1 5.1------ 59.0 60.8----
2024-04-18 07:00 am E 4.1 4.1------ 59.4 60.8----
2024-04-18 06:54 am E 2.9 4.1------ 59.4 60.8----
2024-04-18 06:48 am E 2.9 4.1------ 59.5 60.8----
2024-04-18 06:42 am E 1.9 2.9------ 59.5 60.8----
2024-04-18 06:36 am E 2.9 4.1------ 59.7 60.8----
2024-04-18 06:30 am NE 2.9 4.1------ 60.1 60.8----
2024-04-18 06:24 am N 4.1 4.1------ 60.1 60.8----
2024-04-18 06:18 amNNE 2.9 4.1------ 60.1 60.8----
2024-04-18 06:12 amNNE 2.9 4.1------ 60.1 60.8----
2024-04-18 06:06 am N 2.9 2.9------ 59.9 60.8----
2024-04-18 06:00 amNNE 1.9 2.9------ 60.1 60.8----
2024-04-18 05:54 am NE 2.9 2.9------ 59.9 60.8----
2024-04-18 05:48 amNNE 1.9 2.9------ 59.9 60.8----
2024-04-18 05:42 am N 1.9 2.9------ 59.9 60.8----
2024-04-18 05:36 am NE 1.0 1.9------ 59.9 60.8----
2024-04-18 05:30 am NE 1.0 1.9------ 59.7 60.8----
2024-04-18 05:24 am NE 1.9 2.9------ 59.7 60.8----
2024-04-18 05:18 amNNE 1.0 1.9------ 59.7 60.8----
2024-04-18 05:12 amNNE 1.9 4.1------ 59.7 60.8----
2024-04-18 05:06 amENE 1.9 1.9------ 59.7 60.8----
2024-04-18 05:00 am- 0.0 1.0------ 59.7 60.8----
2024-04-18 04:54 amNNE 1.0 1.9------ 59.7 60.8----
2024-04-18 04:48 am NE 1.9 1.9------ 59.7 60.8----
2024-04-18 04:42 am E 1.9 1.9------ 59.7 60.8----
2024-04-18 04:36 am- 0.0 2.9------ 59.7 60.8----
2024-04-18 04:30 amNNE 1.9 5.1------ 59.5 60.8----
2024-04-18 04:24 am N 4.1 5.1------ 59.5 60.8----
2024-04-18 04:18 amNNE 2.9 2.9------ 59.5 60.8----
2024-04-18 04:12 am NE 2.9 4.1------ 59.4 60.8----
2024-04-18 04:06 amNNE 2.9 5.1------ 59.5 60.8----
2024-04-18 04:00 am NE 4.1 5.1------ 59.4 60.8----
2024-04-18 03:54 am NE 4.1 5.1------ 59.4 60.8----
2024-04-18 03:48 amNNE 2.9 5.1------ 59.4 60.8----
2024-04-18 03:42 amNNE 2.9 4.1------ 59.4 60.8----
2024-04-18 03:36 am NE 2.9 5.1------ 59.4 60.8----
2024-04-18 03:30 amNNE 2.9 4.1------ 59.2 60.8----
2024-04-18 03:24 am N 2.9 6.0------ 59.2 60.8----
2024-04-18 03:18 amNNE 6.0 7.0------ 59.0 60.8----
2024-04-18 03:12 am N 6.0 8.0------ 59.0 60.8----
2024-04-18 03:06 am N 5.1 6.0------ 58.8 60.8----
2024-04-18 03:00 amNNW 2.9 6.0------ 58.8 60.8----
2024-04-18 02:54 am N 5.1 7.0------ 58.8 60.8----
2024-04-18 02:48 am N 4.1 7.0------ 58.6 60.8----
2024-04-18 02:42 am N 4.1 6.0------ 58.6 60.8----
2024-04-18 02:36 am N 5.1 7.0------ 58.6 60.8----
2024-04-18 02:30 am N 2.9 6.0------ 58.6 61.0----
2024-04-18 02:24 am N 2.9 6.0------ 58.8 61.0----
2024-04-18 02:18 am N 5.1 7.0------ 58.8 61.0----
2024-04-18 02:12 am N 5.1 7.0------ 58.6 61.0----
2024-04-18 02:06 amNNE 5.1 6.0------ 58.8 61.0----
2024-04-18 02:00 amNNE 5.1 7.0------ 58.8 61.0----
2024-04-18 01:54 am NE 5.1 6.0------ 58.8 61.2----
2024-04-18 01:48 amNNE 4.1 5.1------ 58.8 61.2----
2024-04-18 01:42 amNNE 4.1 6.0------ 59.0 61.2----
2024-04-18 01:36 amNNE 2.9 7.0------ 59.0 61.2----
2024-04-18 01:30 amNNE 6.0 7.0------ 59.0 61.2----
2024-04-18 01:24 amNNW 4.1 11.1------ 59.0 61.2----
2024-04-18 01:18 amNNW 7.0 12.0------ 59.0 61.2----
2024-04-18 01:12 amNNW 8.0 11.1------ 59.0 61.2----
2024-04-18 01:06 am NW 8.0 11.1------ 58.8 61.2----
2024-04-18 01:00 amNNW 8.0 11.1------ 59.0 61.2----
2024-04-18 12:54 am N 5.1 8.9------ 58.8 61.2----
2024-04-18 12:48 amNNW 7.0 8.9------ 58.8 61.2----
2024-04-18 12:42 amNNW 5.1 8.9------ 58.8 61.2----
2024-04-18 12:36 am N 4.1 5.1------ 58.8 61.2----
2024-04-18 12:30 am E 5.1 7.0------ 58.6 61.2----
2024-04-18 12:24 amENE 5.1 7.0------ 58.8 61.2----
2024-04-18 12:18 amENE 2.9 6.0------ 58.8 61.2----
2024-04-18 12:12 am E 4.1 6.0------ 58.8 61.2----
2024-04-18 12:06 amENE 4.1 7.0------ 58.6 61.2----
2024-04-18 12:00 amENE 5.1 7.0------ 58.6 61.2----
2024-04-17 11:54 pmENE 5.1 7.0------ 58.6 61.2----
2024-04-17 11:48 pmENE 5.1 8.0------ 58.8 61.2----
2024-04-17 11:42 pmENE 4.1 6.0------ 58.6 61.2----
2024-04-17 11:36 pmENE 5.1 7.0------ 58.6 61.2----
2024-04-17 11:30 pm E 6.0 7.0------ 58.6 61.2----
2024-04-17 11:24 pm E 5.1 8.0------ 58.6 61.2----
2024-04-17 11:18 pm E 6.0 8.9------ 58.6 61.2----
2024-04-17 11:12 pmENE 6.0 9.9------ 58.6 61.3----
2024-04-17 11:06 pm E 7.0 8.9------ 58.6 61.3----
2024-04-17 11:00 pmENE 5.1 7.0------ 58.8 61.3----
2024-04-17 10:54 pmENE 6.0 8.0------ 59.0 61.3----
2024-04-17 10:48 pmENE 6.0 11.1------ 59.0 61.3----
2024-04-17 10:42 pmENE 7.0 12.0------ 59.2 61.3----
2024-04-17 10:36 pmENE 7.0 8.9------ 59.2 61.3----
2024-04-17 10:30 pmENE 8.0 9.9------ 59.4 61.3----
2024-04-17 10:24 pm E 6.0 8.9------ 59.5 61.3----
2024-04-17 10:18 pmENE 8.0 9.9------ 59.9 61.3----
2024-04-17 10:12 pmENE 5.1 8.9------ 60.1 61.3----
2024-04-17 10:06 pmENE 6.0 9.9------ 60.1 61.3----
2024-04-17 10:00 pm E 8.0 9.9------ 60.3 61.5----
2024-04-17 09:54 pm E 7.0 8.0------ 60.6 61.5----
2024-04-17 09:48 pm E 6.0 9.9------ 60.8 61.5----
2024-04-17 09:42 pm E 7.0 9.9------ 61.0 61.5----
2024-04-17 09:36 pm E 8.0 12.0------ 61.0 61.5----
2024-04-17 09:30 pm E 8.9 11.1------ 61.3 61.5----
2024-04-17 09:24 pmENE 8.0 9.9------ 61.9 61.3----
2024-04-17 09:18 pm E 7.0 9.9------ 62.2 61.3----
2024-04-17 09:12 pm E 8.9 11.1------ 62.2 61.3----
2024-04-17 09:06 pm E 9.9 12.0------ 62.6 61.3----
2024-04-17 09:00 pm E 8.9 11.1------ 62.8 61.3----
2024-04-17 08:54 pmENE 8.0 12.0------ 63.1 61.3----
2024-04-17 08:48 pmENE 8.0 9.9------ 63.5 61.3----
2024-04-17 08:42 pmENE 7.0 8.9------ 64.0 61.3----
2024-04-17 08:36 pm E 6.0 8.9------ 64.2 61.3----
2024-04-17 08:30 pmENE 6.0 8.9------ 64.6 61.3----
2024-04-17 08:24 pmENE 6.0 7.0------ 65.1 61.3----
2024-04-17 08:18 pm NE 4.1 7.0------ 65.3 61.5----
2024-04-17 08:12 pm NE 6.0 7.0------ 65.3 61.5----
2024-04-17 08:06 pm E 5.1 7.0------ 65.5 61.5----
2024-04-17 08:00 pm E 4.1 5.1------ 65.7 61.7----
2024-04-17 07:54 pm E 5.1 6.0------ 65.8 61.7----
2024-04-17 07:48 pm E 4.1 6.0------ 65.7 61.7----
2024-04-17 07:42 pmESE 5.1 7.0------ 65.8 61.7----
2024-04-17 07:36 pmESE 5.1 7.0------ 66.2 61.5----
2024-04-17 07:30 pm E 5.1 8.0------ 66.2 61.5----
2024-04-17 07:24 pm E 5.1 7.0------ 66.0 61.3----
2024-04-17 07:00 pm E 6.0 8.0------ 66.0 61.3----
2024-04-17 06:54 pm E 7.0 8.9------ 65.8 61.3----
2024-04-17 06:48 pm E 8.0 9.9------ 65.8 61.2----
2024-04-17 06:42 pm E 8.0 8.9------ 66.0 61.2----
2024-04-17 06:36 pm E 5.1 8.0------ 65.8 61.2----
2024-04-17 06:30 pm E 5.1 8.0------ 65.8 61.2----
2024-04-17 06:24 pm E 8.0 9.9------ 66.0 61.0----
2024-04-17 06:18 pm E 8.9 11.1------ 66.0 61.0----
2024-04-17 06:12 pm E 7.0 9.9------ 66.6 61.0----
2024-04-17 06:06 pm E 8.0 9.9------ 66.9 61.0----
2024-04-17 06:00 pm E 6.0 8.0------- 60.8----
2024-04-17 05:54 pmESE 7.0 8.0------- 60.6----
2024-04-17 05:48 pmESE 4.1 5.1------ 67.3 60.6----
2024-04-17 05:42 pm SE 4.1 6.0------ 67.3 60.6----
2024-04-17 05:36 pmESE 5.1 7.0------ 67.5 60.6----
2024-04-17 05:30 pmESE 5.1 8.0------ 67.1 60.6----
2024-04-17 05:24 pmESE 6.0 8.9------ 66.9 60.6----
2024-04-17 05:18 pmESE 6.0 8.0------ 66.7 60.6----
2024-04-17 05:12 pmESE 5.1 7.0------ 66.7 60.4----
2024-04-17 05:06 pmESE 7.0 8.9------ 66.7 60.4----
2024-04-17 05:00 pmESE 7.0 8.9------ 66.9 60.4----
2024-04-17 04:54 pmESE 5.1 6.0------ 66.6 60.4----
2024-04-17 04:48 pmESE 2.9 5.1------ 66.6 60.6----
2024-04-17 04:42 pmESE 4.1 5.1------ 66.2 60.6----
2024-04-17 04:36 pmESE 4.1 5.1------ 65.5 60.8----
2024-04-17 04:30 pm SE 2.9 4.1------ 66.2 60.8----
2024-04-17 04:24 pm SE 2.9 5.1------ 65.8 60.8----
2024-04-17 04:18 pm SE 4.1 5.1------ 65.8 60.8----
2024-04-17 04:12 pm SE 1.9 2.9------ 65.7 60.8----
2024-04-17 04:06 pmENE 1.9 4.1------ 65.5 60.8----
2024-04-17 04:00 pmESE 2.9 5.1------ 64.9 61.0----
2024-04-17 03:54 pmESE 4.1 5.1------ 64.4 61.0----
2024-04-17 03:48 pm E 5.1 7.0------ 63.7 61.0----
2024-04-17 03:42 pm SE 5.1 7.0------ 63.9 61.2----
2024-04-17 03:36 pmESE 5.1 6.0------ 63.0 61.2----
2024-04-17 03:30 pmSSE 2.9 8.9------ 64.4 61.2----
2024-04-17 03:24 pmSSE 4.1 7.0------ 64.8 61.2----
2024-04-17 03:18 pmSSE 2.9 5.1------ 65.1 61.2----
2024-04-17 03:12 pmSSE 2.9 8.0------ 65.5 61.2----
2024-04-17 03:06 pm SE 7.0 11.1------ 64.9 61.0----
2024-04-17 03:00 pm SE 8.9 12.0------ 64.8 61.0----
2024-04-17 02:54 pm SE 8.9 14.0------ 64.4 60.8----
2024-04-17 02:48 pmESE 8.9 14.0------ 64.6 60.6----
2024-04-17 02:42 pmESE 8.9 13.0------ 64.6 60.4----
2024-04-17 02:36 pm E 11.1 15.0------ 64.6 60.4----
2024-04-17 02:30 pm E 9.9 14.0------ 64.6 60.3----
2024-04-17 02:24 pm E 8.0 11.1------ 64.6 60.3----
2024-04-17 02:18 pm E 7.0 11.1------ 64.0 60.3----
2024-04-17 02:12 pmESE 2.9 4.1------ 63.3 60.3----
2024-04-17 02:06 pmESE 2.9 4.1------ 63.9 60.3----
2024-04-17 02:00 pm SE 1.9 4.1------ 63.7 60.3----
2024-04-17 01:54 pm SE 2.9 5.1------ 63.9 60.3----
2024-04-17 01:48 pm SE 4.1 6.0------ 64.2 60.4----
2024-04-17 01:42 pm SE 4.1 6.0------ 63.9 60.4----
2024-04-17 01:36 pm SE 4.1 6.0------ 63.9 60.6----
2024-04-17 01:30 pmESE 2.9 7.0------ 63.1 60.6----
2024-04-17 01:24 pm SE 4.1 8.0------ 63.0 60.4----
2024-04-17 01:18 pmESE 5.1 8.0------ 62.6 60.4----
2024-04-17 01:12 pmESE 5.1 6.0------ 61.9 60.4----
2024-04-17 01:06 pmESE 1.0 2.9------ 62.1 60.4----
2024-04-17 01:00 pmESE 1.0 5.1------ 61.5 60.3----
2024-04-17 12:54 pmENE 1.0 2.9------ 61.0 60.1----